Time;durP1;ratioP1;P1;durP2;ratioP2;P2;SDS_P1;SDS_P2;PMS_P1;PMS_P2;Temp;Humidity;BMP_temperature;BMP_pressure;BME280_temperature;BME280_humidity;BME280_pressure;Samples;Min_cycle;Max_cycle;Signal;HPM_P1;HPM_P2
2022/10/22 00:00:13;;;;;;;;;;;;;;;-142.75;100.00;76383.28;5072320;28;20286;-66
2022/10/22 00:02:38;;;;;;;;;;;;;;;-142.75;100.00;76373.44;5092237;28;19923;-65
2022/10/22 00:05:03;;;;;;;;;;;;;;;-142.75;100.00;76381.31;5093035;28;19916;-66
2022/10/22 00:07:29;;;;;;;;;;;;;;;-142.75;100.00;76385.25;5091272;28;19920;-65
2022/10/22 00:09:54;;;;;;;;;;;;;;;-142.75;100.00;76393.13;5092197;28;20113;-65
2022/10/22 00:12:19;;;;;;;;;;;;;;;-142.75;100.00;76391.16;5092078;28;20002;-66
2022/10/22 00:14:44;;;;;;;;;;;;;;;-142.75;100.00;76397.06;5092106;28;20296;-66
2022/10/22 00:17:10;;;;;;;;;;;;;;;-142.75;100.00;76408.88;5091710;28;19917;-66
2022/10/22 00:19:35;;;;;;;;;;;;;;;-142.75;100.00;76412.81;5092250;28;19973;-66
2022/10/22 00:22:04;;;;;;;;;;;;;;;-142.75;100.00;76430.53;5091846;28;20282;-66
2022/10/22 00:24:29;;;;;;;;;;;;;;;-142.75;100.00;76446.28;5092011;28;19989;-66
2022/10/22 00:26:55;;;;;;;;;;;;;;;-142.75;100.00;76442.34;5091713;28;19936;-65
2022/10/22 00:29:20;;;;;;;;;;;;;;;-142.75;100.00;76452.19;5091526;28;19924;-66
2022/10/22 00:31:48;;;;;;;;;;;;;;;-142.75;100.00;76456.13;5091906;28;20010;-67
2022/10/22 00:34:14;;;;;;;;;;;;;;;-142.75;100.00;76456.13;5092112;28;19928;-65
2022/10/22 00:36:40;;;;;;;;;;;;;;;-142.75;100.00;76460.06;5091881;28;19916;-66
2022/10/22 00:39:05;;;;;;;;;;;;;;;-142.75;100.00;76458.09;5091645;28;19916;-66
2022/10/22 00:41:31;;;;;;;;;;;;;;;-142.75;100.00;76446.28;5089702;28;21764;-66
2022/10/22 00:44:01;;;;;;;;;;;;;;;-142.75;100.00;76456.13;5091402;28;19924;-66
2022/10/22 00:46:26;;;;;;;;;;;;;;;-142.75;100.00;76450.22;5091410;28;19951;-66
2022/10/22 00:48:53;;;;;;;;;;;;;;;-142.75;100.00;76446.28;5090927;28;20370;-66
2022/10/22 00:51:19;;;;;;;;;;;;;;;-142.75;100.00;76442.34;5091511;28;19916;-66
2022/10/22 00:53:47;;;;;;;;;;;;;;;-142.75;100.00;76436.44;5091465;28;20392;-67
2022/10/22 00:56:12;;;;;;;;;;;;;;;-142.75;100.00;76420.69;5091425;28;19916;-66
2022/10/22 00:58:40;;;;;;;;;;;;;;;-142.75;100.00;76414.78;5089574;28;19923;-66
2022/10/22 01:01:08;;;;;;;;;;;;;;;-142.75;100.00;76408.88;5091079;28;19924;-66
2022/10/22 01:03:33;;;;;;;;;;;;;;;-142.75;100.00;76408.88;5091634;28;19920;-66
2022/10/22 01:06:00;;;;;;;;;;;;;;;-142.75;100.00;76408.88;5091589;28;20298;-66
2022/10/22 01:08:25;;;;;;;;;;;;;;;-142.75;100.00;76397.06;5090787;28;20029;-66
2022/10/22 01:10:59;;;;;;;;;;;;;;;-142.75;100.00;76395.09;5091126;28;19950;-66
2022/10/22 01:13:31;;;;;;;;;;;;;;;-142.75;100.00;76393.13;5091100;28;19967;-66
2022/10/22 01:16:07;;;;;;;;;;;;;;;-142.75;100.00;76397.06;5091007;28;19969;-66
2022/10/22 01:18:42;;;;;;;;;;;;;;;-142.75;100.00;76399.03;5090259;28;19916;-66
2022/10/22 01:21:10;;;;;;;;;;;;;;;-142.75;100.00;76401.00;5090563;28;19924;-66
2022/10/22 01:23:45;;;;;;;;;;;;;;;-142.75;100.00;76397.06;5089518;28;19916;-66
2022/10/22 01:26:22;;;;;;;;;;;;;;;-142.75;100.00;76391.16;5090809;28;19916;-66
2022/10/22 01:28:47;;;;;;;;;;;;;;;-142.75;100.00;76389.19;5090316;28;20015;-66
2022/10/22 01:31:14;;;;;;;;;;;;;;;-142.75;100.00;76389.19;5090851;28;20369;-66
2022/10/22 01:33:41;;;;;;;;;;;;;;;-142.75;100.00;76375.41;5089719;28;19962;-66
2022/10/22 01:36:06;;;;;;;;;;;;;;;-142.75;100.00;76371.47;5090833;28;20385;-66
2022/10/22 01:38:32;;;;;;;;;;;;;;;-142.75;100.00;76367.53;5090167;28;19924;-65
2022/10/22 01:40:59;;;;;;;;;;;;;;;-142.75;100.00;76361.63;5090735;28;19959;-65
2022/10/22 01:43:24;;;;;;;;;;;;;;;-142.75;100.00;76359.66;5090393;28;19966;-66
2022/10/22 01:45:51;;;;;;;;;;;;;;;-142.75;100.00;76349.81;5090410;28;20355;-66
2022/10/22 01:48:26;;;;;;;;;;;;;;;-142.75;100.00;76359.66;5089943;28;20115;-65
2022/10/22 01:51:10;;;;;;;;;;;;;;;-142.75;100.00;76353.78;5090441;28;20297;-66
2022/10/22 01:53:43;;;;;;;;;;;;;;;-142.75;100.00;76351.81;5090352;28;21215;-66
2022/10/22 01:56:15;;;;;;;;;;;;;;;-142.75;100.00;76355.72;5090321;28;19924;-66
2022/10/22 01:58:45;;;;;;;;;;;;;;;-142.75;100.00;76353.78;5090014;28;19923;-66
2022/10/22 02:01:22;;;;;;;;;;;;;;;-142.75;100.00;76347.84;5090216;28;19920;-66
2022/10/22 02:03:51;;;;;;;;;;;;;;;-142.75;100.00;76341.97;5090509;28;19931;-65
2022/10/22 02:06:18;;;;;;;;;;;;;;;-142.75;100.00;76332.13;5090476;28;19917;-66
2022/10/22 02:08:43;;;;;;;;;;;;;;;-142.75;100.00;76341.97;5089561;28;19928;-66
2022/10/22 02:11:10;;;;;;;;;;;;;;;-142.75;100.00;76347.84;5090108;28;19922;-65
2022/10/22 02:13:40;;;;;;;;;;;;;;;-142.75;100.00;76347.84;5090041;28;19916;-65
2022/10/22 02:16:06;;;;;;;;;;;;;;;-142.75;100.00;76349.81;5088853;28;20341;-65
2022/10/22 02:18:34;;;;;;;;;;;;;;;-142.75;100.00;76351.81;5081565;28;19916;-66
2022/10/22 02:21:00;;;;;;;;;;;;;;;-142.75;100.00;76349.81;5069729;28;19962;-66
2022/10/22 02:23:26;;;;;;;;;;;;;;;-142.75;100.00;76353.78;5069928;28;19917;-66
2022/10/22 02:25:55;;;;;;;;;;;;;;;-142.75;100.00;76351.81;5069784;28;19924;-66
2022/10/22 02:28:25;;;;;;;;;;;;;;;-142.75;100.00;76351.81;5088282;28;19928;-66
2022/10/22 02:30:52;;;;;;;;;;;;;;;-142.75;100.00;76345.91;5092796;28;19920;-66
2022/10/22 02:33:23;;;;;;;;;;;;;;;-142.75;100.00;76351.81;5096817;28;19916;-66
2022/10/22 02:35:49;;;;;;;;;;;;;;;-142.75;100.00;76343.94;5097127;28;19916;-66
2022/10/22 02:38:14;;;;;;;;;;;;;;;-142.75;100.00;76349.81;5096258;28;19926;-66
2022/10/22 02:40:40;;;;;;;;;;;;;;;-142.75;100.00;76341.97;5096451;28;20517;-66
2022/10/22 02:43:05;;;;;;;;;;;;;;;-142.75;100.00;76343.94;5095205;28;19916;-67
2022/10/22 02:45:31;;;;;;;;;;;;;;;-142.75;100.00;76353.78;5096713;28;20002;-66
2022/10/22 02:47:57;;;;;;;;;;;;;;;-142.75;100.00;76343.94;5095922;28;19964;-66
2022/10/22 02:50:22;;;;;;;;;;;;;;;-142.75;100.00;76345.91;5096297;28;19974;-66
2022/10/22 02:52:47;;;;;;;;;;;;;;;-142.75;100.00;76345.91;5096451;28;20061;-66
2022/10/22 02:55:12;;;;;;;;;;;;;;;-142.75;100.00;76345.91;5095052;28;19920;-66
2022/10/22 02:57:37;;;;;;;;;;;;;;;-142.75;100.00;76334.09;5096004;28;20297;-67
2022/10/22 03:00:04;;;;;;;;;;;;;;;-142.75;100.00;76349.81;5096437;28;19927;-66
2022/10/22 03:02:29;;;;;;;;;;;;;;;-142.75;100.00;76345.91;5095062;28;19916;-66
2022/10/22 03:04:54;;;;;;;;;;;;;;;-142.75;100.00;76351.81;5096691;28;19924;-66
2022/10/22 03:07:19;;;;;;;;;;;;;;;-142.75;100.00;76351.81;5096307;28;20005;-66
2022/10/22 03:09:45;;;;;;;;;;;;;;;-142.75;100.00;76357.69;5095948;28;20312;-66
2022/10/22 03:12:10;;;;;;;;;;;;;;;-142.75;100.00;76357.69;5096320;28;19919;-66
2022/10/22 03:14:35;;;;;;;;;;;;;;;-142.75;100.00;76361.63;5096259;28;19923;-66
2022/10/22 03:17:01;;;;;;;;;;;;;;;-142.75;100.00;76357.69;5095927;28;19923;-66
2022/10/22 03:19:26;;;;;;;;;;;;;;;-142.75;100.00;76377.38;5096023;28;19916;-66
2022/10/22 03:21:51;;;;;;;;;;;;;;;-142.75;100.00;76371.47;5096222;28;19959;-66
2022/10/22 03:24:18;;;;;;;;;;;;;;;-142.75;100.00;76377.38;5096202;28;20028;-66
2022/10/22 03:26:44;;;;;;;;;;;;;;;-142.75;100.00;76365.56;5095789;28;19928;-67
2022/10/22 03:29:11;;;;;;;;;;;;;;;-142.75;100.00;76377.38;5096089;28;20469;-66
2022/10/22 03:31:37;;;;;;;;;;;;;;;-142.75;100.00;76371.47;5096291;28;19916;-66
2022/10/22 03:34:02;;;;;;;;;;;;;;;-142.75;100.00;76387.22;5096171;28;19916;-66
2022/10/22 03:36:27;;;;;;;;;;;;;;;-142.75;100.00;76379.34;5096393;28;20350;-66
2022/10/22 03:38:52;;;;;;;;;;;;;;;-142.75;100.00;76377.38;5095730;28;19926;-66
2022/10/22 03:41:18;;;;;;;;;;;;;;;-142.75;100.00;76369.50;5095941;28;20357;-66
2022/10/22 03:43:48;;;;;;;;;;;;;;;-142.75;100.00;76367.53;5091751;28;20301;-68
2022/10/22 03:46:13;;;;;;;;;;;;;;;-142.75;100.00;76369.50;5092725;28;19920;-66
2022/10/22 03:48:38;;;;;;;;;;;;;;;-142.75;100.00;76375.41;5092223;28;19988;-65
2022/10/22 03:51:04;;;;;;;;;;;;;;;-142.75;100.00;76379.34;5092533;28;20448;-65
2022/10/22 03:53:29;;;;;;;;;;;;;;;-142.75;100.00;76375.41;5092600;28;19916;-66
2022/10/22 03:55:54;;;;;;;;;;;;;;;-142.75;100.00;76383.28;5092533;28;19920;-66
2022/10/22 03:58:19;;;;;;;;;;;;;;;-142.75;100.00;76381.31;5092249;28;19924;-66
2022/10/22 04:00:44;;;;;;;;;;;;;;;-142.75;100.00;76385.25;5092386;28;19916;-65
2022/10/22 04:03:10;;;;;;;;;;;;;;;-142.75;100.00;76383.28;5092534;28;19916;-66
2022/10/22 04:05:35;;;;;;;;;;;;;;;-142.75;100.00;76397.06;5091832;28;20404;-66
2022/10/22 04:08:00;;;;;;;;;;;;;;;-142.75;100.00;76397.06;5092025;28;20355;-65
2022/10/22 04:10:25;;;;;;;;;;;;;;;-142.75;100.00;76391.16;5092135;28;19927;-66
2022/10/22 04:12:50;;;;;;;;;;;;;;;-142.75;100.00;76393.13;5092280;28;20495;-66
2022/10/22 04:15:16;;;;;;;;;;;;;;;-142.75;100.00;76399.03;5092186;28;19916;-66
2022/10/22 04:17:41;;;;;;;;;;;;;;;-142.75;100.00;76393.13;5091747;28;19916;-66
2022/10/22 04:20:06;;;;;;;;;;;;;;;-142.75;100.00;76402.97;5091997;28;20015;-65
2022/10/22 04:22:33;;;;;;;;;;;;;;;-142.75;100.00;76404.94;5092085;28;19920;-66
2022/10/22 04:24:58;;;;;;;;;;;;;;;-142.75;100.00;76416.75;5092003;28;19916;-66
2022/10/22 04:27:23;;;;;;;;;;;;;;;-142.75;100.00;76410.84;5091635;28;19969;-66
2022/10/22 04:29:48;;;;;;;;;;;;;;;-142.75;100.00;76410.84;5091695;28;20398;-66
2022/10/22 04:32:13;;;;;;;;;;;;;;;-142.75;100.00;76416.75;5091877;28;19916;-65
2022/10/22 04:34:39;;;;;;;;;;;;;;;-142.75;100.00;76422.66;5092001;28;19916;-66
2022/10/22 04:37:04;;;;;;;;;;;;;;;-142.75;100.00;76424.63;5092065;28;19993;-65
2022/10/22 04:39:29;;;;;;;;;;;;;;;-142.75;100.00;76426.59;5091320;28;19924;-66
2022/10/22 04:41:55;;;;;;;;;;;;;;;-142.75;100.00;76426.59;5091687;28;19916;-65
2022/10/22 04:44:20;;;;;;;;;;;;;;;-142.75;100.00;76436.44;5091737;28;20547;-66
2022/10/22 04:46:45;;;;;;;;;;;;;;;-142.75;100.00;76432.50;5091295;28;19927;-66
2022/10/22 04:49:10;;;;;;;;;;;;;;;-142.75;100.00;76434.47;5091209;28;19924;-65
2022/10/22 04:51:35;;;;;;;;;;;;;;;-142.75;100.00;76448.25;5091509;28;19939;-66
2022/10/22 04:54:01;;;;;;;;;;;;;;;-142.75;100.00;76452.19;5091298;28;20301;-66
2022/10/22 04:56:28;;;;;;;;;;;;;;;-142.75;100.00;76467.94;5091339;28;19923;-65
2022/10/22 04:58:58;;;;;;;;;;;;;;;-142.75;100.00;76464.00;5091106;28;20365;-65
2022/10/22 05:01:28;;;;;;;;;;;;;;;-142.75;100.00;76458.09;5091309;28;20028;-65
2022/10/22 05:03:54;;;;;;;;;;;;;;;-142.75;100.00;76462.03;5070172;28;19920;-65
2022/10/22 05:06:20;;;;;;;;;;;;;;;-142.75;100.00;76465.97;5071245;28;20011;-66
2022/10/22 05:08:45;;;;;;;;;;;;;;;-142.75;100.00;76464.00;5070709;28;20065;-66
2022/10/22 05:11:12;;;;;;;;;;;;;;;-142.75;100.00;76456.13;5071007;28;20413;-65
2022/10/22 05:13:37;;;;;;;;;;;;;;;-142.75;100.00;76456.13;5070943;28;19933;-66
2022/10/22 05:16:02;;;;;;;;;;;;;;;-142.75;100.00;76464.00;5070740;28;20302;-66
2022/10/22 05:18:27;;;;;;;;;;;;;;;-142.75;100.00;76462.03;5070492;28;19920;-66
2022/10/22 05:20:53;;;;;;;;;;;;;;;-142.75;100.00;76464.00;5070790;28;20356;-65
2022/10/22 05:23:18;;;;;;;;;;;;;;;-142.75;100.00;76479.75;5070711;28;19934;-65
2022/10/22 05:25:43;;;;;;;;;;;;;;;-142.75;100.00;76487.63;5070797;28;19924;-66
2022/10/22 05:28:08;;;;;;;;;;;;;;;-142.75;100.00;76493.53;5070207;28;20397;-66
2022/10/22 05:30:33;;;;;;;;;;;;;;;-142.75;100.00;76491.56;5070547;28;19926;-66
2022/10/22 05:32:58;;;;;;;;;;;;;;;-142.75;100.00;76499.44;5070586;28;19960;-66
2022/10/22 05:35:24;;;;;;;;;;;;;;;-142.75;100.00;76503.38;5070914;28;19961;-65
2022/10/22 05:37:49;;;;;;;;;;;;;;;-142.75;100.00;76507.31;5070224;28;20370;-66
2022/10/22 05:40:14;;;;;;;;;;;;;;;-142.75;100.00;76513.22;5070467;28;20394;-65
2022/10/22 05:42:39;;;;;;;;;;;;;;;-142.75;100.00;76515.19;5070396;28;19916;-66
2022/10/22 05:45:05;;;;;;;;;;;;;;;-142.75;100.00;76528.97;5070180;28;20003;-66
2022/10/22 05:47:30;;;;;;;;;;;;;;;-142.75;100.00;76530.91;5069990;28;19923;-66
2022/10/22 05:49:56;;;;;;;;;;;;;;;-142.75;100.00;76538.78;5092228;22;19947;-66
2022/10/22 05:52:21;;;;;;;;;;;;;;;-142.75;100.00;76538.78;5050588;28;19925;-67
2022/10/22 05:54:46;;;;;;;;;;;;;;;-142.75;100.00;76542.72;5070055;28;19942;-64
2022/10/22 05:57:12;;;;;;;;;;;;;;;-142.75;100.00;76542.72;5070694;28;19916;-66
2022/10/22 05:59:37;;;;;;;;;;;;;;;-142.75;100.00;76540.75;5090217;28;20429;-66
2022/10/22 06:02:02;;;;;;;;;;;;;;;-142.75;100.00;76540.75;5090172;28;20011;-66
2022/10/22 06:04:27;;;;;;;;;;;;;;;-142.75;100.00;76542.72;5090336;28;19916;-66
2022/10/22 06:06:53;;;;;;;;;;;;;;;-142.75;100.00;76546.66;5089710;28;19953;-66
2022/10/22 06:09:22;;;;;;;;;;;;;;;-142.75;100.00;76542.72;5090145;28;20404;-66
2022/10/22 06:11:48;;;;;;;;;;;;;;;-142.75;100.00;76552.56;5090058;28;19916;-65
2022/10/22 06:14:14;;;;;;;;;;;;;;;-142.75;100.00;76554.53;5090100;28;19985;-66
2022/10/22 06:16:39;;;;;;;;;;;;;;;-142.75;100.00;76538.78;5089737;28;19923;-67
2022/10/22 06:19:05;;;;;;;;;;;;;;;-142.75;100.00;76538.78;5089905;28;19919;-65
2022/10/22 06:21:30;;;;;;;;;;;;;;;-142.75;100.00;76534.84;5089388;28;19924;-66
2022/10/22 06:23:56;;;;;;;;;;;;;;;-142.75;100.00;76538.78;5069846;28;19928;-64
2022/10/22 06:26:21;;;;;;;;;;;;;;;-142.75;100.00;76527.00;5069764;28;19928;-66
2022/10/22 06:28:47;;;;;;;;;;;;;;;-142.75;100.00;76538.78;5051290;28;19916;-66
2022/10/22 06:31:13;;;;;;;;;;;;;;;-142.75;100.00;76527.00;5069858;28;19917;-65
2022/10/22 06:33:41;;;;;;;;;;;;;;;-142.75;100.00;76523.06;5069869;28;19916;-66
2022/10/22 06:36:10;;;;;;;;;;;;;;;-142.75;100.00;76515.19;5070332;28;19916;-66
2022/10/22 06:38:36;;;;;;;;;;;;;;;-142.75;100.00;76519.13;5069269;28;19924;-66
2022/10/22 06:41:05;;;;;;;;;;;;;;;-142.75;100.00;76521.09;5069756;28;19939;-66
2022/10/22 06:43:30;;;;;;;;;;;;;;;-142.75;100.00;76519.13;5069717;28;19917;-66
2022/10/22 06:45:59;;;;;;;;;;;;;;;-142.75;100.00;76528.97;5069481;28;19935;-66
2022/10/22 06:48:24;;;;;;;;;;;;;;;-142.75;100.00;76527.00;5069172;28;20054;-66
2022/10/22 06:50:50;;;;;;;;;;;;;;;-142.75;100.00;76519.13;5069556;28;20003;-67
2022/10/22 06:53:15;;;;;;;;;;;;;;;-142.75;100.00;76527.00;5053184;28;19923;-67
2022/10/22 06:55:40;;;;;;;;;;;;;;;-142.75;100.00;76527.00;5071541;28;20389;-66
2022/10/22 06:58:05;;;;;;;;;;;;;;;-142.75;100.00;76534.84;5089322;28;19916;-66
2022/10/22 07:00:31;;;;;;;;;;;;;;;-142.75;100.00;76542.72;5089495;28;19928;-66
2022/10/22 07:02:56;;;;;;;;;;;;;;;-142.75;100.00;76528.97;5089594;28;19917;-66
2022/10/22 07:05:21;;;;;;;;;;;;;;;-142.75;100.00;76521.09;5089878;28;19916;-67
2022/10/22 07:07:46;;;;;;;;;;;;;;;-142.75;100.00;76523.06;5089682;28;19920;-66
2022/10/22 07:10:11;;;;;;;;;;;;;;;-142.75;100.00;76525.03;5072454;28;19924;-66
2022/10/22 07:12:37;;;;;;;;;;;;;;;-142.75;100.00;76523.06;5067388;28;19963;-66
2022/10/22 07:15:02;;;;;;;;;;;;;;;-142.75;100.00;76527.00;5062901;28;19959;-66
2022/10/22 07:17:27;;;;;;;;;;;;;;;-142.75;100.00;76519.13;5068972;28;19923;-66
2022/10/22 07:19:52;;;;;;;;;;;;;;;-142.75;100.00;76511.25;5067550;28;20382;-65
2022/10/22 07:22:18;;;;;;;;;;;;;;;-142.75;100.00;76493.53;5055940;28;19917;-66
2022/10/22 07:24:43;;;;;;;;;;;;;;;-142.75;100.00;76509.28;5047072;28;19917;-66
2022/10/22 07:27:08;;;;;;;;;;;;;;;-142.75;100.00;76511.25;5070849;28;19973;-66
2022/10/22 07:29:33;;;;;;;;;;;;;;;-142.75;100.00;76511.25;5047270;28;19923;-66
2022/10/22 07:31:58;;;;;;;;;;;;;;;-142.75;100.00;76517.16;5068508;28;19925;-66
2022/10/22 07:34:24;;;;;;;;;;;;;;;-142.75;100.00;76519.13;5066858;28;20560;-67
2022/10/22 07:36:49;;;;;;;;;;;;;;;-142.75;100.00;76523.06;5049932;28;20318;-66
2022/10/22 07:39:14;;;;;;;;;;;;;;;-142.75;100.00;76519.13;5045988;28;19970;-65
2022/10/22 07:41:39;;;;;;;;;;;;;;;-142.75;100.00;76511.25;5068121;28;19916;-65
2022/10/22 07:44:04;;;;;;;;;;;;;;;-142.75;100.00;76475.81;5063733;28;20386;-64
2022/10/22 07:46:29;;;;;;;;;;;;;;;-142.75;100.00;76456.13;5067968;28;19920;-66
2022/10/22 07:48:55;;;;;;;;;;;;;;;-142.75;100.00;76460.06;5046231;28;19916;-66
2022/10/22 07:51:20;;;;;;;;;;;;;;;-142.75;100.00;76458.09;5068514;28;19927;-67
2022/10/22 07:53:45;;;;;;;;;;;;;;;-142.75;100.00;76464.00;5065127;28;19992;-66
2022/10/22 07:56:10;;;;;;;;;;;;;;;-142.75;100.00;76460.06;5068423;28;19923;-64
2022/10/22 07:58:36;;;;;;;;;;;;;;;-142.75;100.00;76469.91;5084319;28;19916;-67
2022/10/22 08:01:01;;;;;;;;;;;;;;;-142.75;100.00;76479.75;5091188;28;19916;-65
2022/10/22 08:03:27;;;;;;;;;;;;;;;-142.75;100.00;76483.69;5072856;28;19916;-67
2022/10/22 08:05:53;;;;;;;;;;;;;;;-142.75;100.00;76481.72;5073411;28;19920;-68
2022/10/22 08:08:18;;;;;;;;;;;;;;;-142.75;100.00;76465.97;5090766;28;19920;-65
2022/10/22 08:10:44;;;;;;;;;;;;;;;-142.75;100.00;76456.13;5091021;28;19961;-65
2022/10/22 08:13:10;;;;;;;;;;;;;;;-142.75;100.00;76442.34;5090817;28;20401;-67
2022/10/22 08:15:35;;;;;;;;;;;;;;;-142.75;100.00;76442.34;5073305;28;19923;-66
2022/10/22 08:18:00;;;;;;;;;;;;;;;-142.75;100.00;76444.31;5055175;28;19916;-66
2022/10/22 08:20:25;;;;;;;;;;;;;;;-142.75;100.00;76446.28;5073139;28;19924;-67
2022/10/22 08:22:51;;;;;;;;;;;;;;;-142.75;100.00;76454.16;5073286;28;19916;-67
2022/10/22 08:25:17;;;;;;;;;;;;;;;-142.75;100.00;76450.22;5053939;28;19931;-68
2022/10/22 08:27:42;;;;;;;;;;;;;;;-142.75;100.00;76450.22;5074050;28;19920;-66
2022/10/22 08:30:08;;;;;;;;;;;;;;;-142.75;100.00;76465.97;5079583;28;19936;-67
2022/10/22 08:32:33;;;;;;;;;;;;;;;-142.75;100.00;76471.88;5072842;28;19956;-67
2022/10/22 08:34:58;;;;;;;;;;;;;;;-142.75;100.00;76448.25;5083901;28;19916;-67
2022/10/22 08:37:24;;;;;;;;;;;;;;;-142.75;100.00;76436.44;5068712;28;19970;-67
2022/10/22 08:39:50;;;;;;;;;;;;;;;-142.75;100.00;76379.34;5082434;28;20274;-66
2022/10/22 08:42:33;;;;;;;;;;;;;;;-142.75;100.00;76330.16;5080581;28;19966;-68
2022/10/22 08:44:58;;;;;;;;;;;;;;;-142.75;100.00;76263.22;5073864;28;19920;-66
2022/10/22 08:47:27;;;;;;;;;;;;;;;-142.75;100.00;76223.84;5061594;28;19924;-66
2022/10/22 08:49:52;;;;;;;;;;;;;;;-142.75;100.00;76184.50;5067284;28;19916;-67
2022/10/22 08:52:18;;;;;;;;;;;;;;;-142.75;100.00;76145.13;5047564;28;19935;-65
2022/10/22 08:54:52;;;;;;;;;;;;;;;-142.75;100.00;76137.25;5061786;28;20624;-65
2022/10/22 08:57:17;;;;;;;;;;;;;;;-142.75;100.00;76093.94;5073435;28;19923;-65
2022/10/22 08:59:46;;;;;;;;;;;;;;;-142.75;100.00;76109.69;5074369;28;19916;-64
2022/10/22 09:02:18;;;;;;;;;;;;;;;-142.75;100.00;76131.34;5069913;28;20306;-63
2022/10/22 09:04:47;;;;;;;;;;;;;;;-142.75;100.00;76151.03;5062631;28;19950;-64
2022/10/22 09:07:13;;;;;;;;;;;;;;;-142.75;100.00;76153.00;5062052;28;19975;-68
2022/10/22 09:09:41;;;;;;;;;;;;;;;-142.75;100.00;76172.69;5046273;28;19916;-65
2022/10/22 09:12:09;;;;;;;;;;;;;;;-142.75;100.00;76206.13;5067255;28;19917;-67
2022/10/22 09:14:34;;;;;;;;;;;;;;;-142.75;100.00;76192.38;5049419;28;19923;-65
2022/10/22 09:17:17;;;;;;;;;;;;;;;-142.75;100.00;76149.06;5065868;28;20007;-67
2022/10/22 09:19:45;;;;;;;;;;;;;;;-142.75;100.00;76162.84;5061350;28;19917;-65
2022/10/22 09:22:13;;;;;;;;;;;;;;;-142.75;100.00;76176.63;5068598;28;19922;-63
2022/10/22 09:24:42;;;;;;;;;;;;;;;-142.75;100.00;76196.31;5073073;28;19917;-65
2022/10/22 09:27:12;;;;;;;;;;;;;;;-142.75;100.00;76160.88;5070623;28;19959;-67
2022/10/22 09:29:38;;;;;;;;;;;;;;;-142.75;100.00;76176.63;5071847;28;19971;-68
2022/10/22 09:32:03;;;;;;;;;;;;;;;-142.75;100.00;76212.03;5071856;28;19939;-67
2022/10/22 09:34:29;;;;;;;;;;;;;;;-142.75;100.00;76243.53;5071822;28;19916;-67
2022/10/22 09:37:01;;;;;;;;;;;;;;;-142.75;100.00;76223.84;5071482;28;19920;-67
2022/10/22 09:39:27;;;;;;;;;;;;;;;-142.75;100.00;76227.78;5051794;28;19924;-68
2022/10/22 09:41:53;;;;;;;;;;;;;;;-142.75;100.00;76233.69;5070576;28;19916;-67
2022/10/22 09:44:18;;;;;;;;;;;;;;;-142.75;100.00;76247.47;5071724;28;19916;-67
2022/10/22 09:46:44;;;;;;;;;;;;;;;-142.75;100.00;76273.06;5071171;28;19995;-67
2022/10/22 09:49:17;;;;;;;;;;;;;;;-142.75;100.00;76282.91;5053550;28;20283;-66
2022/10/22 09:51:49;;;;;;;;;;;;;;;-142.75;100.00;76261.25;5071655;28;19916;-67
2022/10/22 09:54:19;;;;;;;;;;;;;;;-142.75;100.00;76263.22;5053488;28;19923;-67
2022/10/22 09:56:50;;;;;;;;;;;;;;;-142.75;100.00;76245.50;5071246;28;19916;-69
2022/10/22 09:59:17;;;;;;;;;;;;;;;-142.75;100.00;76235.66;5071459;28;19920;-68
2022/10/22 10:01:43;;;;;;;;;;;;;;;-142.75;100.00;76229.75;5071385;28;19916;-68
2022/10/22 10:04:15;;;;;;;;;;;;;;;-142.75;100.00;76208.09;5085542;28;20539;-68
2022/10/22 10:06:41;;;;;;;;;;;;;;;-142.75;100.00;76176.63;5052148;28;19921;-67
2022/10/22 10:09:18;;;;;;;;;;;;;;;-142.75;100.00;76113.63;5071210;28;19943;-66
2022/10/22 10:12:00;;;;;;;;;;;;;;;-142.75;100.00;76093.94;5069076;28;19958;-68
2022/10/22 10:14:25;;;;;;;;;;;;;;;-142.75;100.00;76042.78;5070572;28;19924;-69
2022/10/22 10:16:50;;;;;;;;;;;;;;;-142.75;100.00;76034.91;5069496;28;19969;-67
2022/10/22 10:19:22;;;;;;;;;;;;;;;-142.75;100.00;76046.72;5070935;28;19926;-69
2022/10/22 10:21:56;;;;;;;;;;;;;;;-142.75;100.00;76046.72;5071191;28;19916;-68
2022/10/22 10:24:35;;;;;;;;;;;;;;;-142.75;100.00;75997.50;5071099;28;19988;-68
2022/10/22 10:27:08;;;;;;;;;;;;;;;-142.75;100.00;76023.09;5070793;28;21298;-67
2022/10/22 10:29:33;;;;;;;;;;;;;;;-142.75;100.00;76036.88;5070894;28;19956;-68
2022/10/22 10:32:11;;;;;;;;;;;;;;;-142.75;100.00;75971.91;5071082;28;19959;-69
2022/10/22 10:34:39;;;;;;;;;;;;;;;-142.75;100.00;75932.56;5071160;28;19917;-70
2022/10/22 10:37:16;;;;;;;;;;;;;;;-142.75;100.00;75964.03;5070834;28;19916;-67
2022/10/22 10:40:04;;;;;;;;;;;;;;;-142.75;100.00;75979.78;5070989;28;19924;-67
2022/10/22 10:42:40;;;;;;;;;;;;;;;-142.75;100.00;76015.22;5054605;28;20365;-68
2022/10/22 10:45:11;;;;;;;;;;;;;;;-142.75;100.00;75981.75;5070907;28;19927;-67
2022/10/22 10:48:03;;;;;;;;;;;;;;;-142.75;100.00;75966.00;5070466;28;20332;-67
2022/10/22 10:50:44;;;;;;;;;;;;;;;-142.75;100.00;75879.41;5052853;28;19923;-67
2022/10/22 10:53:15;;;;;;;;;;;;;;;-142.75;100.00;75920.75;5074431;28;19916;-67
2022/10/22 10:55:58;;;;;;;;;;;;;;;-142.75;100.00;75905.00;5073894;28;20285;-66
2022/10/22 10:58:43;;;;;;;;;;;;;;;-142.75;100.00;75932.56;5072079;28;20009;-67
2022/10/22 11:01:18;;;;;;;;;;;;;;;-142.75;100.00;75861.69;5053939;28;19917;-68
2022/10/22 11:03:49;;;;;;;;;;;;;;;-142.75;100.00;75802.66;5073555;28;19916;-67
2022/10/22 11:06:16;;;;;;;;;;;;;;;-142.75;100.00;75877.44;5073424;28;19916;-68
2022/10/22 11:08:42;;;;;;;;;;;;;;;-142.75;100.00;75948.31;5072649;28;19924;-67
2022/10/22 11:11:07;;;;;;;;;;;;;;;-142.75;100.00;75987.66;5054157;28;20461;-68
2022/10/22 11:13:38;;;;;;;;;;;;;;;-142.75;100.00;75973.88;5060244;28;19976;-68
2022/10/22 11:16:18;;;;;;;;;;;;;;;-142.75;100.00;76001.44;5076002;28;19916;-67
2022/10/22 11:18:43;;;;;;;;;;;;;;;-142.75;100.00;76003.41;5072969;28;19932;-69
2022/10/22 11:21:15;;;;;;;;;;;;;;;-142.75;100.00;76001.44;5069582;28;19920;-68
2022/10/22 11:23:43;;;;;;;;;;;;;;;-142.75;100.00;76015.22;5093316;28;19956;-67
2022/10/22 11:26:26;;;;;;;;;;;;;;;-142.75;100.00;76072.31;5093600;28;19999;-68
2022/10/22 11:28:52;;;;;;;;;;;;;;;-142.75;100.00;76074.25;5087036;28;19920;-68
2022/10/22 11:31:18;;;;;;;;;;;;;;;-142.75;100.00;76091.97;5073218;28;19923;-67
2022/10/22 11:33:56;;;;;;;;;;;;;;;-142.75;100.00;76038.84;5072685;28;19917;-68
2022/10/22 11:36:24;;;;;;;;;;;;;;;-142.75;100.00;76044.75;5072804;28;21279;-67
2022/10/22 11:38:50;;;;;;;;;;;;;;;-142.75;100.00;76023.09;5072007;28;20293;-67
2022/10/22 11:41:17;;;;;;;;;;;;;;;-142.75;100.00;75987.66;5088186;28;20362;-67
2022/10/22 11:43:51;;;;;;;;;;;;;;;-142.75;100.00;75964.03;5074562;28;19930;-67
2022/10/22 11:46:16;;;;;;;;;;;;;;;-142.75;100.00;75975.84;5092705;28;19962;-67
2022/10/22 11:48:41;;;;;;;;;;;;;;;-142.75;100.00;75950.28;5114275;22;19920;-66
2022/10/22 11:51:26;;;;;;;;;;;;;;;-142.75;100.00;75936.50;5070120;28;20301;-66
2022/10/22 11:53:54;;;;;;;;;;;;;;;-142.75;100.00;75893.19;5071373;28;20346;-66
2022/10/22 11:56:22;;;;;;;;;;;;;;;-142.75;100.00;75855.81;5074019;28;20278;-65
2022/10/22 11:58:48;;;;;;;;;;;;;;;-142.75;100.00;75857.78;5092183;28;20037;-65
2022/10/22 12:01:14;;;;;;;;;;;;;;;-142.75;100.00;75844.00;5092464;28;19920;-66
2022/10/22 12:03:42;;;;;;;;;;;;;;;-142.75;100.00;75857.78;5091576;28;19916;-66
2022/10/22 12:06:10;;;;;;;;;;;;;;;-142.75;100.00;75849.91;5092277;28;19923;-66
2022/10/22 12:08:56;;;;;;;;;;;;;;;-142.75;100.00;75887.28;5087589;28;19970;-66
2022/10/22 12:11:26;;;;;;;;;;;;;;;-142.75;100.00;75936.50;5075403;28;19924;-66
2022/10/22 12:14:10;;;;;;;;;;;;;;;-142.75;100.00;75960.13;5092823;28;19959;-66
2022/10/22 12:16:37;;;;;;;;;;;;;;;-142.75;100.00;75932.56;5092748;28;19916;-66
2022/10/22 12:19:08;;;;;;;;;;;;;;;-142.75;100.00;75950.28;5088727;28;19928;-66